Terminal Aerodrome Forecast
Issued by NWS Charleston, WV

Home | Current Version | Previous Version | Text Only | Print | Product List | Glossary On
Versions: 1 2 3 4 5 6 7 8 9 10 11 12 13 14 15 16 17 18 19 20 21 22 23 24 25
926
FTUS41 KRLX 221742 CCA
TAFCRW
TAF COR
KCRW 221742Z 2218/2318 24007KT P6SM SHRA VCTS SCT040CB OVC100
      TEMPO 2218/2222 VRB10G20KT 3SM TSRA BKN035CB
     FM222300 21004KT P6SM SCT045 BKN150
     FM230400 21003KT P6SM SHRA VCTS BKN045CB
     FM230700 25003KT 4SM SHRA BR BKN015
     FM230900 00000KT 2SM BR BKN015
     FM231400 33003KT P6SM BKN015=

USA.gov is the U.S. government's official web portal to all federal, state and local government web resources and services.